sensor_id;sensor_type;location;lat;lon;timestamp;pressure;altitude;pressure_sealevel;temperature;humidity
11912;BME280;6016;41.928;25.556;2023-09-19T00:00:40;99466.97;;;20.58;58.53
11912;BME280;6016;41.928;25.556;2023-09-19T00:03:08;99389.91;;;20.25;58.14
11912;BME280;6016;41.928;25.556;2023-09-19T00:05:37;99464.75;;;20.62;57.96
11912;BME280;6016;41.928;25.556;2023-09-19T00:08:05;99359.28;;;20.06;57.76
11912;BME280;6016;41.928;25.556;2023-09-19T00:10:33;99379.72;;;20.14;58.00
11912;BME280;6016;41.928;25.556;2023-09-19T00:13:01;99474.06;;;20.73;58.24
11912;BME280;6016;41.928;25.556;2023-09-19T00:15:35;99472.22;;;20.73;58.35
11912;BME280;6016;41.928;25.556;2023-09-19T00:18:03;99369.16;;;20.05;57.83
11912;BME280;6016;41.928;25.556;2023-09-19T00:20:32;99372.41;;;20.01;58.01
11912;BME280;6016;41.928;25.556;2023-09-19T00:23:01;99344.91;;;19.92;58.63
11912;BME280;6016;41.928;25.556;2023-09-19T00:25:34;99345.72;;;19.86;57.74
11912;BME280;6016;41.928;25.556;2023-09-19T00:28:02;99455.63;;;20.56;58.09
11912;BME280;6016;41.928;25.556;2023-09-19T00:30:30;99457.28;;;20.57;58.25
11912;BME280;6016;41.928;25.556;2023-09-19T00:32:58;99452.31;;;20.54;57.81
11912;BME280;6016;41.928;25.556;2023-09-19T00:35:26;99470.91;;;20.56;58.05
11912;BME280;6016;41.928;25.556;2023-09-19T00:37:53;99452.13;;;20.56;58.39
11912;BME280;6016;41.928;25.556;2023-09-19T00:40:22;99455.63;;;20.56;59.08
11912;BME280;6016;41.928;25.556;2023-09-19T00:42:51;99343.28;;;19.91;58.85
11912;BME280;6016;41.928;25.556;2023-09-19T00:45:18;99348.81;;;19.89;58.91
11912;BME280;6016;41.928;25.556;2023-09-19T00:47:48;99448.84;;;20.60;58.34
11912;BME280;6016;41.928;25.556;2023-09-19T00:50:17;99457.72;;;20.61;58.84
11912;BME280;6016;41.928;25.556;2023-09-19T00:52:45;99459.16;;;20.57;58.90
11912;BME280;6016;41.928;25.556;2023-09-19T00:55:15;99413.38;;;20.23;58.58
11912;BME280;6016;41.928;25.556;2023-09-19T00:57:46;99384.88;;;19.65;58.81
11912;BME280;6016;41.928;25.556;2023-09-19T01:00:15;99453.75;;;20.50;58.75
11912;BME280;6016;41.928;25.556;2023-09-19T01:02:44;99403.81;;;20.14;58.71
11912;BME280;6016;41.928;25.556;2023-09-19T01:05:12;99453.13;;;20.48;58.44
11912;BME280;6016;41.928;25.556;2023-09-19T01:07:39;99405.66;;;20.13;58.51
11912;BME280;6016;41.928;25.556;2023-09-19T01:10:08;99380.75;;;19.91;57.75
11912;BME280;6016;41.928;25.556;2023-09-19T01:12:48;99459.66;;;20.38;58.08
11912;BME280;6016;41.928;25.556;2023-09-19T01:15:24;99354.53;;;19.58;58.54
11912;BME280;6016;41.928;25.556;2023-09-19T01:18:11;99429.97;;;20.12;59.11
11912;BME280;6016;41.928;25.556;2023-09-19T01:20:46;99412.72;;;19.92;58.23
11912;BME280;6016;41.928;25.556;2023-09-19T01:23:23;99437.34;;;20.09;58.75
11912;BME280;6016;41.928;25.556;2023-09-19T01:26:10;99440.94;;;20.17;58.47
11912;BME280;6016;41.928;25.556;2023-09-19T01:28:52;99453.31;;;20.18;59.27
11912;BME280;6016;41.928;25.556;2023-09-19T01:31:23;99453.50;;;20.16;58.68
11912;BME280;6016;41.928;25.556;2023-09-19T01:33:58;99458.88;;;20.16;58.01
11912;BME280;6016;41.928;25.556;2023-09-19T01:36:31;99409.59;;;19.67;57.88
11912;BME280;6016;41.928;25.556;2023-09-19T01:39:02;99333.50;;;19.33;59.28
11912;BME280;6016;41.928;25.556;2023-09-19T01:41:44;99366.66;;;19.53;58.34
11912;BME280;6016;41.928;25.556;2023-09-19T01:44:17;99349.44;;;19.41;58.94
11912;BME280;6016;41.928;25.556;2023-09-19T01:46:49;99398.25;;;19.65;59.14
11912;BME280;6016;41.928;25.556;2023-09-19T01:49:24;99315.91;;;19.17;58.84
11912;BME280;6016;41.928;25.556;2023-09-19T01:52:08;99144.56;;;18.09;58.77
11912;BME280;6016;41.928;25.556;2023-09-19T01:54:44;99254.41;;;18.80;58.46
11912;BME280;6016;41.928;25.556;2023-09-19T01:57:17;99356.50;;;19.49;59.73
11912;BME280;6016;41.928;25.556;2023-09-19T01:59:49;99435.66;;;20.02;59.21
11912;BME280;6016;41.928;25.556;2023-09-19T02:02:20;99443.50;;;20.03;59.22
11912;BME280;6016;41.928;25.556;2023-09-19T02:04:48;99437.69;;;20.00;58.76
11912;BME280;6016;41.928;25.556;2023-09-19T02:07:16;99435.22;;;19.98;59.47
11912;BME280;6016;41.928;25.556;2023-09-19T02:09:43;99385.63;;;19.59;59.27
11912;BME280;6016;41.928;25.556;2023-09-19T02:12:10;99360.66;;;19.51;59.29
11912;BME280;6016;41.928;25.556;2023-09-19T02:14:37;99382.75;;;19.60;59.29
11912;BME280;6016;41.928;25.556;2023-09-19T02:17:04;99489.22;;;20.02;59.31
11912;BME280;6016;41.928;25.556;2023-09-19T02:19:34;99439.63;;;20.06;59.16
11912;BME280;6016;41.928;25.556;2023-09-19T02:22:02;99156.66;;;18.27;58.73
11912;BME280;6016;41.928;25.556;2023-09-19T02:24:33;99417.41;;;19.90;59.52
11912;BME280;6016;41.928;25.556;2023-09-19T02:27:00;99438.78;;;20.05;59.57
11912;BME280;6016;41.928;25.556;2023-09-19T02:29:29;99391.94;;;19.73;59.93
11912;BME280;6016;41.928;25.556;2023-09-19T02:31:56;99441.22;;;20.00;58.19
11912;BME280;6016;41.928;25.556;2023-09-19T02:34:24;99420.59;;;20.01;58.38
11912;BME280;6016;41.928;25.556;2023-09-19T02:36:52;99386.75;;;19.71;59.16
11912;BME280;6016;41.928;25.556;2023-09-19T02:39:21;99428.25;;;19.82;58.87
11912;BME280;6016;41.928;25.556;2023-09-19T02:41:49;99413.97;;;19.75;58.00
11912;BME280;6016;41.928;25.556;2023-09-19T02:44:16;99426.44;;;19.89;59.27
11912;BME280;6016;41.928;25.556;2023-09-19T02:46:45;99383.16;;;19.57;58.44
11912;BME280;6016;41.928;25.556;2023-09-19T02:49:12;99394.53;;;19.66;59.27
11912;BME280;6016;41.928;25.556;2023-09-19T02:51:40;99396.53;;;19.57;59.08
11912;BME280;6016;41.928;25.556;2023-09-19T02:54:08;99414.59;;;19.77;59.78
11912;BME280;6016;41.928;25.556;2023-09-19T02:56:37;99298.78;;;18.96;59.39
11912;BME280;6016;41.928;25.556;2023-09-19T02:59:04;99425.06;;;19.72;59.87
11912;BME280;6016;41.928;25.556;2023-09-19T03:01:31;99414.75;;;19.68;60.36
11912;BME280;6016;41.928;25.556;2023-09-19T03:03:59;99422.19;;;19.51;60.33
11912;BME280;6016;41.928;25.556;2023-09-19T03:06:26;99427.13;;;19.70;60.43
11912;BME280;6016;41.928;25.556;2023-09-19T03:08:53;99358.44;;;19.33;59.98
11912;BME280;6016;41.928;25.556;2023-09-19T03:11:23;99413.97;;;19.75;60.57
11912;BME280;6016;41.928;25.556;2023-09-19T03:13:53;99350.41;;;19.33;59.35
11912;BME280;6016;41.928;25.556;2023-09-19T03:16:21;99386.00;;;19.56;59.60
11912;BME280;6016;41.928;25.556;2023-09-19T03:18:49;99412.66;;;19.64;59.76
11912;BME280;6016;41.928;25.556;2023-09-19T03:21:16;99316.28;;;18.98;61.14
11912;BME280;6016;41.928;25.556;2023-09-19T03:23:45;99360.19;;;19.26;60.77
11912;BME280;6016;41.928;25.556;2023-09-19T03:26:12;99369.13;;;19.33;60.92
11912;BME280;6016;41.928;25.556;2023-09-19T03:28:42;99161.81;;;17.98;60.46
11912;BME280;6016;41.928;25.556;2023-09-19T03:31:11;99264.56;;;18.69;60.62
11912;BME280;6016;41.928;25.556;2023-09-19T03:33:38;99170.69;;;17.69;60.02
11912;BME280;6016;41.928;25.556;2023-09-19T03:36:05;99409.13;;;19.63;59.87
11912;BME280;6016;41.928;25.556;2023-09-19T03:38:33;99411.75;;;19.57;60.34
11912;BME280;6016;41.928;25.556;2023-09-19T03:41:00;99412.59;;;19.57;60.95
11912;BME280;6016;41.928;25.556;2023-09-19T03:43:27;99414.25;;;19.58;60.19
11912;BME280;6016;41.928;25.556;2023-09-19T03:45:56;99373.00;;;19.31;60.67
11912;BME280;6016;41.928;25.556;2023-09-19T03:48:23;99380.63;;;19.34;59.93
11912;BME280;6016;41.928;25.556;2023-09-19T03:50:49;99366.13;;;19.21;61.04
11912;BME280;6016;41.928;25.556;2023-09-19T03:53:16;99427.72;;;19.50;60.62
11912;BME280;6016;41.928;25.556;2023-09-19T03:55:44;99359.25;;;18.82;60.60
11912;BME280;6016;41.928;25.556;2023-09-19T03:58:11;99192.66;;;18.01;59.75
11912;BME280;6016;41.928;25.556;2023-09-19T04:00:39;99374.06;;;19.15;59.96
11912;BME280;6016;41.928;25.556;2023-09-19T04:03:07;99050.72;;;16.85;60.86
11912;BME280;6016;41.928;25.556;2023-09-19T04:05:34;99349.50;;;18.89;61.31
11912;BME280;6016;41.928;25.556;2023-09-19T04:08:01;99260.16;;;18.25;60.06
11912;BME280;6016;41.928;25.556;2023-09-19T04:10:28;99421.22;;;19.37;60.27
11912;BME280;6016;41.928;25.556;2023-09-19T04:12:55;99381.09;;;19.16;60.87
11912;BME280;6016;41.928;25.556;2023-09-19T04:15:22;99105.03;;;17.38;60.33
11912;BME280;6016;41.928;25.556;2023-09-19T04:17:50;99424.81;;;19.45;60.68
11912;BME280;6016;41.928;25.556;2023-09-19T04:20:18;99437.81;;;19.48;61.29
11912;BME280;6016;41.928;25.556;2023-09-19T04:22:47;99431.25;;;19.50;61.00
11912;BME280;6016;41.928;25.556;2023-09-19T04:25:14;99422.06;;;19.38;60.20
11912;BME280;6016;41.928;25.556;2023-09-19T04:27:41;99419.38;;;19.38;60.35
11912;BME280;6016;41.928;25.556;2023-09-19T04:30:10;99445.81;;;19.48;59.30
11912;BME280;6016;41.928;25.556;2023-09-19T04:32:37;99450.84;;;19.36;60.73
11912;BME280;6016;41.928;25.556;2023-09-19T04:35:06;99453.84;;;19.48;59.64
11912;BME280;6016;41.928;25.556;2023-09-19T04:37:37;99452.84;;;19.49;58.98
11912;BME280;6016;41.928;25.556;2023-09-19T04:40:06;99359.66;;;18.64;59.86
11912;BME280;6016;41.928;25.556;2023-09-19T04:42:38;99449.53;;;19.47;59.97
11912;BME280;6016;41.928;25.556;2023-09-19T04:45:06;99429.00;;;19.32;60.47
11912;BME280;6016;41.928;25.556;2023-09-19T04:47:35;99440.47;;;19.48;60.54
11912;BME280;6016;41.928;25.556;2023-09-19T04:50:07;99334.94;;;18.92;59.82
11912;BME280;6016;41.928;25.556;2023-09-19T04:52:38;99434.56;;;19.52;60.60
11912;BME280;6016;41.928;25.556;2023-09-19T04:55:06;99439.06;;;19.52;61.38
11912;BME280;6016;41.928;25.556;2023-09-19T04:57:33;99445.44;;;19.51;62.02
11912;BME280;6016;41.928;25.556;2023-09-19T05:00:02;99444.06;;;19.55;61.78
11912;BME280;6016;41.928;25.556;2023-09-19T05:02:32;99445.72;;;19.56;61.66
11912;BME280;6016;41.928;25.556;2023-09-19T05:05:00;99443.28;;;19.61;62.06
11912;BME280;6016;41.928;25.556;2023-09-19T05:07:27;99449.91;;;19.65;61.65
11912;BME280;6016;41.928;25.556;2023-09-19T05:09:55;99450.19;;;19.71;61.28
11912;BME280;6016;41.928;25.556;2023-09-19T05:12:22;99324.81;;;18.87;61.79
11912;BME280;6016;41.928;25.556;2023-09-19T05:14:48;99378.56;;;19.29;61.10
11912;BME280;6016;41.928;25.556;2023-09-19T05:17:15;99296.53;;;18.78;60.85
11912;BME280;6016;41.928;25.556;2023-09-19T05:19:43;99443.56;;;19.66;61.41
11912;BME280;6016;41.928;25.556;2023-09-19T05:22:09;99438.28;;;19.73;61.47
11912;BME280;6016;41.928;25.556;2023-09-19T05:24:38;99451.34;;;19.83;61.57
11912;BME280;6016;41.928;25.556;2023-09-19T05:27:06;99313.63;;;18.98;62.11
11912;BME280;6016;41.928;25.556;2023-09-19T05:29:33;99397.34;;;19.58;62.17
11912;BME280;6016;41.928;25.556;2023-09-19T05:32:00;99452.50;;;19.95;61.58
11912;BME280;6016;41.928;25.556;2023-09-19T05:34:29;99450.28;;;19.99;61.39
11912;BME280;6016;41.928;25.556;2023-09-19T05:36:55;99126.31;;;17.98;61.45
11912;BME280;6016;41.928;25.556;2023-09-19T05:39:22;99447.44;;;20.07;61.16
11912;BME280;6016;41.928;25.556;2023-09-19T05:41:49;98785.97;;;15.74;61.12
11912;BME280;6016;41.928;25.556;2023-09-19T05:44:17;99447.50;;;20.14;60.97
11912;BME280;6016;41.928;25.556;2023-09-19T05:46:45;99448.53;;;20.13;61.52
11912;BME280;6016;41.928;25.556;2023-09-19T05:49:14;99427.03;;;20.06;61.05
11912;BME280;6016;41.928;25.556;2023-09-19T05:51:41;99445.31;;;20.24;60.84
11912;BME280;6016;41.928;25.556;2023-09-19T05:54:08;99378.91;;;19.91;60.89
11912;BME280;6016;41.928;25.556;2023-09-19T05:56:36;99432.53;;;20.27;60.26
11912;BME280;6016;41.928;25.556;2023-09-19T05:59:04;99185.47;;;18.75;60.42
11912;BME280;6016;41.928;25.556;2023-09-19T06:01:33;99318.34;;;19.62;60.31
11912;BME280;6016;41.928;25.556;2023-09-19T06:04:00;99387.31;;;20.10;60.47
11912;BME280;6016;41.928;25.556;2023-09-19T06:06:26;99442.84;;;20.58;60.48
11912;BME280;6016;41.928;25.556;2023-09-19T06:08:53;99400.47;;;20.40;60.64
11912;BME280;6016;41.928;25.556;2023-09-19T06:11:20;99372.84;;;20.33;60.21
11912;BME280;6016;41.928;25.556;2023-09-19T06:13:48;99407.25;;;20.64;60.62
11912;BME280;6016;41.928;25.556;2023-09-19T06:16:16;99154.41;;;19.18;59.83
11912;BME280;6016;41.928;25.556;2023-09-19T06:18:46;99251.00;;;19.87;60.33
11912;BME280;6016;41.928;25.556;2023-09-19T06:21:18;99251.19;;;19.85;60.12
11912;BME280;6016;41.928;25.556;2023-09-19T06:23:45;99440.28;;;21.14;59.70
11912;BME280;6016;41.928;25.556;2023-09-19T06:26:12;99435.38;;;21.24;59.43
11912;BME280;6016;41.928;25.556;2023-09-19T06:28:39;99436.84;;;21.33;59.39
11912;BME280;6016;41.928;25.556;2023-09-19T06:31:06;99439.31;;;21.42;59.43
11912;BME280;6016;41.928;25.556;2023-09-19T06:33:35;99442.25;;;21.54;59.32
11912;BME280;6016;41.928;25.556;2023-09-19T06:36:05;99378.41;;;21.22;59.65
11912;BME280;6016;41.928;25.556;2023-09-19T06:38:32;99405.28;;;21.49;59.67
11912;BME280;6016;41.928;25.556;2023-09-19T06:41:01;99437.16;;;21.92;59.04
11912;BME280;6016;41.928;25.556;2023-09-19T06:43:30;99397.91;;;21.85;58.70
11912;BME280;6016;41.928;25.556;2023-09-19T06:45:56;99434.47;;;22.60;57.21
11912;BME280;6016;41.928;25.556;2023-09-19T06:48:23;99423.59;;;23.46;55.57
11912;BME280;6016;41.928;25.556;2023-09-19T06:50:53;99409.34;;;25.15;50.69
11912;BME280;6016;41.928;25.556;2023-09-19T06:53:21;99021.31;;;25.22;44.75
11912;BME280;6016;41.928;25.556;2023-09-19T06:55:49;99427.22;;;29.02;41.14
11912;BME280;6016;41.928;25.556;2023-09-19T06:58:16;99423.84;;;28.72;42.03
11912;BME280;6016;41.928;25.556;2023-09-19T07:00:43;99425.09;;;27.74;43.26
11912;BME280;6016;41.928;25.556;2023-09-19T07:03:10;99381.94;;;26.68;45.31
11912;BME280;6016;41.928;25.556;2023-09-19T07:05:38;99424.31;;;26.38;47.18
11912;BME280;6016;41.928;25.556;2023-09-19T07:08:06;99421.09;;;25.94;48.44
11912;BME280;6016;41.928;25.556;2023-09-19T07:10:34;99419.50;;;25.62;49.77
11912;BME280;6016;41.928;25.556;2023-09-19T07:13:03;99419.06;;;25.35;49.97
11912;BME280;6016;41.928;25.556;2023-09-19T07:15:32;99435.44;;;25.21;50.74
11912;BME280;6016;41.928;25.556;2023-09-19T07:18:01;99418.19;;;25.53;48.94
11912;BME280;6016;41.928;25.556;2023-09-19T07:20:27;99415.03;;;26.22;47.54
11912;BME280;6016;41.928;25.556;2023-09-19T07:22:57;99320.84;;;25.83;46.76
11912;BME280;6016;41.928;25.556;2023-09-19T07:25:25;99417.97;;;26.45;47.11
11912;BME280;6016;41.928;25.556;2023-09-19T07:27:55;99405.88;;;26.23;47.37
11912;BME280;6016;41.928;25.556;2023-09-19T07:30:22;99400.44;;;26.23;47.14
11912;BME280;6016;41.928;25.556;2023-09-19T07:32:49;99394.41;;;26.09;48.31
11912;BME280;6016;41.928;25.556;2023-09-19T07:35:15;99397.72;;;25.88;47.27
11912;BME280;6016;41.928;25.556;2023-09-19T07:37:44;99393.91;;;25.65;48.12
11912;BME280;6016;41.928;25.556;2023-09-19T07:40:14;99390.84;;;25.49;49.27
11912;BME280;6016;41.928;25.556;2023-09-19T07:42:41;99393.00;;;25.40;49.97
11912;BME280;6016;41.928;25.556;2023-09-19T07:45:11;99389.81;;;25.32;49.82
11912;BME280;6016;41.928;25.556;2023-09-19T07:47:40;99362.41;;;25.16;49.53
11912;BME280;6016;41.928;25.556;2023-09-19T07:50:08;99389.59;;;25.33;49.23
11912;BME280;6016;41.928;25.556;2023-09-19T07:52:35;99382.75;;;25.31;49.35
11912;BME280;6016;41.928;25.556;2023-09-19T07:55:02;99174.16;;;23.89;50.13
11912;BME280;6016;41.928;25.556;2023-09-19T07:57:34;99373.94;;;25.23;50.11
11912;BME280;6016;41.928;25.556;2023-09-19T08:00:01;99367.34;;;25.19;49.72
11912;BME280;6016;41.928;25.556;2023-09-19T08:02:34;99353.41;;;25.22;48.30
11912;BME280;6016;41.928;25.556;2023-09-19T08:05:01;99372.81;;;25.43;48.11
11912;BME280;6016;41.928;25.556;2023-09-19T08:07:31;99376.34;;;25.43;48.67
11912;BME280;6016;41.928;25.556;2023-09-19T08:09:58;99365.06;;;25.47;49.26
11912;BME280;6016;41.928;25.556;2023-09-19T08:12:25;99369.81;;;25.51;49.13
11912;BME280;6016;41.928;25.556;2023-09-19T08:14:52;99367.13;;;25.51;48.81
11912;BME280;6016;41.928;25.556;2023-09-19T08:17:20;99374.16;;;25.52;48.83
11912;BME280;6016;41.928;25.556;2023-09-19T08:19:49;99375.22;;;25.51;49.11
11912;BME280;6016;41.928;25.556;2023-09-19T08:22:18;99319.13;;;24.92;48.87
11912;BME280;6016;41.928;25.556;2023-09-19T08:24:45;99367.69;;;25.53;48.93
11912;BME280;6016;41.928;25.556;2023-09-19T08:27:13;99361.59;;;25.58;47.97
11912;BME280;6016;41.928;25.556;2023-09-19T08:29:46;99359.28;;;25.62;47.78
11912;BME280;6016;41.928;25.556;2023-09-19T08:32:15;99361.28;;;25.66;48.53
11912;BME280;6016;41.928;25.556;2023-09-19T08:34:43;99352.91;;;25.68;45.86
11912;BME280;6016;41.928;25.556;2023-09-19T08:37:12;99343.53;;;25.70;47.95
11912;BME280;6016;41.928;25.556;2023-09-19T08:39:38;99340.47;;;25.67;47.94
11912;BME280;6016;41.928;25.556;2023-09-19T08:42:05;99338.72;;;25.73;47.13
11912;BME280;6016;41.928;25.556;2023-09-19T08:44:36;99325.31;;;25.66;46.45
11912;BME280;6016;41.928;25.556;2023-09-19T08:47:11;99334.72;;;25.75;46.65
11912;BME280;6016;41.928;25.556;2023-09-19T08:49:50;99320.38;;;25.75;46.02
11912;BME280;6016;41.928;25.556;2023-09-19T08:52:25;99261.25;;;25.42;45.42
11912;BME280;6016;41.928;25.556;2023-09-19T08:54:58;99327.66;;;25.86;46.44
11912;BME280;6016;41.928;25.556;2023-09-19T08:57:28;99300.16;;;25.65;46.17
11912;BME280;6016;41.928;25.556;2023-09-19T08:59:57;99317.56;;;25.93;45.50
11912;BME280;6016;41.928;25.556;2023-09-19T09:02:26;99310.84;;;25.96;45.42
11912;BME280;6016;41.928;25.556;2023-09-19T09:04:55;99321.22;;;25.99;45.26
11912;BME280;6016;41.928;25.556;2023-09-19T09:07:26;99314.63;;;26.07;46.23
11912;BME280;6016;41.928;25.556;2023-09-19T09:09:54;99309.09;;;26.02;46.10
11912;BME280;6016;41.928;25.556;2023-09-19T09:12:21;99309.66;;;26.04;45.07
11912;BME280;6016;41.928;25.556;2023-09-19T09:14:49;99303.56;;;26.08;44.87
11912;BME280;6016;41.928;25.556;2023-09-19T09:17:16;99298.16;;;26.08;45.51
11912;BME280;6016;41.928;25.556;2023-09-19T09:19:43;99206.19;;;25.55;45.78
11912;BME280;6016;41.928;25.556;2023-09-19T09:22:10;99304.75;;;26.24;44.04
11912;BME280;6016;41.928;25.556;2023-09-19T09:24:52;99242.81;;;25.87;43.36
11912;BME280;6016;41.928;25.556;2023-09-19T09:27:20;99119.19;;;25.18;45.36
11912;BME280;6016;41.928;25.556;2023-09-19T09:29:50;99271.34;;;26.19;45.41
11912;BME280;6016;41.928;25.556;2023-09-19T09:32:21;99269.69;;;26.18;43.87
11912;BME280;6016;41.928;25.556;2023-09-19T09:34:50;99286.03;;;26.23;45.32
11912;BME280;6016;41.928;25.556;2023-09-19T09:37:18;99288.28;;;26.26;44.43
11912;BME280;6016;41.928;25.556;2023-09-19T09:39:51;99253.00;;;26.09;43.93
11912;BME280;6016;41.928;25.556;2023-09-19T09:42:32;99245.25;;;26.12;43.87
11912;BME280;6016;41.928;25.556;2023-09-19T09:45:17;99283.91;;;26.37;43.26
11912;BME280;6016;41.928;25.556;2023-09-19T09:47:54;99215.56;;;25.89;44.72
11912;BME280;6016;41.928;25.556;2023-09-19T09:50:27;99196.66;;;25.77;42.64
11912;BME280;6016;41.928;25.556;2023-09-19T09:53:08;99228.38;;;25.93;42.93
11912;BME280;6016;41.928;25.556;2023-09-19T09:56:01;99266.38;;;26.27;43.73
11912;BME280;6016;41.928;25.556;2023-09-19T09:58:31;99235.25;;;26.13;44.38
11912;BME280;6016;41.928;25.556;2023-09-19T10:00:59;99234.72;;;26.40;44.00
11912;BME280;6016;41.928;25.556;2023-09-19T10:03:34;99253.00;;;26.62;43.82
11912;BME280;6016;41.928;25.556;2023-09-19T10:06:08;99253.91;;;26.67;43.30
11912;BME280;6016;41.928;25.556;2023-09-19T10:09:01;99253.38;;;26.82;43.73
11912;BME280;6016;41.928;25.556;2023-09-19T10:11:41;99068.13;;;25.81;43.63
11912;BME280;6016;41.928;25.556;2023-09-19T10:14:10;99234.13;;;26.67;43.08
11912;BME280;6016;41.928;25.556;2023-09-19T10:16:40;99249.34;;;26.85;43.51
11912;BME280;6016;41.928;25.556;2023-09-19T10:19:15;99206.59;;;26.41;42.96
11912;BME280;6016;41.928;25.556;2023-09-19T10:21:42;99202.72;;;26.49;43.16
11912;BME280;6016;41.928;25.556;2023-09-19T10:24:11;99224.91;;;26.80;43.54
11912;BME280;6016;41.928;25.556;2023-09-19T10:26:43;99222.97;;;26.92;41.61
11912;BME280;6016;41.928;25.556;2023-09-19T10:29:13;99182.09;;;26.77;42.28
11912;BME280;6016;41.928;25.556;2023-09-19T10:31:44;99226.00;;;26.96;42.30
11912;BME280;6016;41.928;25.556;2023-09-19T10:34:14;99164.25;;;26.64;42.20
11912;BME280;6016;41.928;25.556;2023-09-19T10:36:44;99206.28;;;26.83;42.62
11912;BME280;6016;41.928;25.556;2023-09-19T10:39:14;99196.63;;;26.88;41.38
11912;BME280;6016;41.928;25.556;2023-09-19T10:41:45;99211.97;;;26.99;40.40
11912;BME280;6016;41.928;25.556;2023-09-19T10:44:21;99134.47;;;26.47;40.59
11912;BME280;6016;41.928;25.556;2023-09-19T10:46:49;99202.88;;;27.05;39.67
11912;BME280;6016;41.928;25.556;2023-09-19T10:49:18;99199.50;;;27.15;40.96
11912;BME280;6016;41.928;25.556;2023-09-19T10:51:46;99146.94;;;26.94;40.26
11912;BME280;6016;41.928;25.556;2023-09-19T10:54:16;99201.03;;;27.28;40.19
11912;BME280;6016;41.928;25.556;2023-09-19T10:56:49;99198.28;;;27.23;38.63
11912;BME280;6016;41.928;25.556;2023-09-19T10:59:18;99192.78;;;27.18;38.25
11912;BME280;6016;41.928;25.556;2023-09-19T11:01:47;99182.34;;;27.27;39.72
11912;BME280;6016;41.928;25.556;2023-09-19T11:04:37;99189.06;;;27.24;40.55
11912;BME280;6016;41.928;25.556;2023-09-19T11:07:06;99179.38;;;27.28;40.04
11912;BME280;6016;41.928;25.556;2023-09-19T11:09:49;99180.72;;;27.26;40.83
11912;BME280;6016;41.928;25.556;2023-09-19T11:12:49;99178.41;;;27.34;39.12
11912;BME280;6016;41.928;25.556;2023-09-19T11:18:51;99158.00;;;27.49;38.56
11912;BME280;6016;41.928;25.556;2023-09-19T11:21:41;99157.00;;;27.55;37.81
11912;BME280;6016;41.928;25.556;2023-09-19T11:24:30;99152.06;;;27.52;39.10
11912;BME280;6016;41.928;25.556;2023-09-19T11:27:14;99152.25;;;27.62;39.74
11912;BME280;6016;41.928;25.556;2023-09-19T11:29:44;99106.94;;;27.41;38.28
11912;BME280;6016;41.928;25.556;2023-09-19T11:32:12;99140.16;;;27.70;39.83
11912;BME280;6016;41.928;25.556;2023-09-19T11:40:35;99097.72;;;27.59;36.53
11912;BME280;6016;41.928;25.556;2023-09-19T11:43:32;99128.47;;;27.92;38.16
11912;BME280;6016;41.928;25.556;2023-09-19T11:46:03;99130.47;;;28.02;36.61
11912;BME280;6016;41.928;25.556;2023-09-19T11:48:31;99127.03;;;28.12;36.92
11912;BME280;6016;41.928;25.556;2023-09-19T11:51:00;99126.38;;;27.99;37.34
11912;BME280;6016;41.928;25.556;2023-09-19T11:53:33;99101.81;;;27.84;36.17
11912;BME280;6016;41.928;25.556;2023-09-19T11:56:01;99114.97;;;27.97;36.74
11912;BME280;6016;41.928;25.556;2023-09-19T11:58:30;99111.91;;;28.16;36.50
11912;BME280;6016;41.928;25.556;2023-09-19T12:01:00;99106.88;;;28.25;37.20
11912;BME280;6016;41.928;25.556;2023-09-19T12:03:31;99050.91;;;27.91;35.92
11912;BME280;6016;41.928;25.556;2023-09-19T12:05:59;99108.31;;;28.38;35.09
11912;BME280;6016;41.928;25.556;2023-09-19T12:08:28;99096.69;;;28.42;33.49
11912;BME280;6016;41.928;25.556;2023-09-19T12:10:55;99078.75;;;28.36;34.82
11912;BME280;6016;41.928;25.556;2023-09-19T12:13:23;99081.47;;;28.36;35.15
11912;BME280;6016;41.928;25.556;2023-09-19T12:15:51;99090.25;;;28.48;36.09
11912;BME280;6016;41.928;25.556;2023-09-19T12:18:27;99045.34;;;28.30;36.93
11912;BME280;6016;41.928;25.556;2023-09-19T12:20:56;99080.81;;;28.56;37.12
11912;BME280;6016;41.928;25.556;2023-09-19T12:23:23;99075.69;;;28.60;37.29
11912;BME280;6016;41.928;25.556;2023-09-19T12:25:51;99039.44;;;28.39;37.11
11912;BME280;6016;41.928;25.556;2023-09-19T12:28:19;99070.47;;;28.53;36.05
11912;BME280;6016;41.928;25.556;2023-09-19T12:30:47;99071.84;;;28.56;34.89
11912;BME280;6016;41.928;25.556;2023-09-19T12:33:18;99069.97;;;28.61;34.56
11912;BME280;6016;41.928;25.556;2023-09-19T12:35:46;99068.31;;;28.55;36.37
11912;BME280;6016;41.928;25.556;2023-09-19T12:38:24;99044.13;;;28.48;34.22
11912;BME280;6016;41.928;25.556;2023-09-19T12:40:52;99043.69;;;28.29;35.29
11912;BME280;6016;41.928;25.556;2023-09-19T12:43:19;98995.19;;;28.05;34.72
11912;BME280;6016;41.928;25.556;2023-09-19T12:45:47;99058.78;;;28.47;34.77
11912;BME280;6016;41.928;25.556;2023-09-19T12:48:18;99034.72;;;28.29;35.76
11912;BME280;6016;41.928;25.556;2023-09-19T12:51:02;99025.81;;;28.06;36.85
11912;BME280;6016;41.928;25.556;2023-09-19T12:53:34;98899.34;;;27.07;35.26
11912;BME280;6016;41.928;25.556;2023-09-19T12:56:05;99053.13;;;27.94;36.29
11912;BME280;6016;41.928;25.556;2023-09-19T12:58:34;98904.28;;;26.88;35.83
11912;BME280;6016;41.928;25.556;2023-09-19T13:01:14;98989.59;;;27.57;36.07
11912;BME280;6016;41.928;25.556;2023-09-19T13:03:41;99049.88;;;27.97;36.37
11912;BME280;6016;41.928;25.556;2023-09-19T13:06:08;99053.88;;;27.89;36.52
11912;BME280;6016;41.928;25.556;2023-09-19T13:08:38;99044.66;;;27.90;35.54
11912;BME280;6016;41.928;25.556;2023-09-19T13:11:09;99043.22;;;27.83;37.21
11912;BME280;6016;41.928;25.556;2023-09-19T13:13:42;99020.63;;;27.72;37.60
11912;BME280;6016;41.928;25.556;2023-09-19T13:16:10;99036.28;;;27.92;36.56
11912;BME280;6016;41.928;25.556;2023-09-19T13:18:47;99000.06;;;27.76;35.34
11912;BME280;6016;41.928;25.556;2023-09-19T13:21:16;98969.06;;;27.66;35.62
11912;BME280;6016;41.928;25.556;2023-09-19T13:23:55;99030.78;;;28.14;35.51